Svartfoss — V2PR3 — position and weather

sailwx.info

Track history (hours):
 
Tides and Currents Weather Stations Pressure Air Temp Water Temp Dewpoint Dewpoint Depression Visibility Wind Speed Wind Dir Waves Ship Positions

Svartfoss

Last reported at 2014-Oct-01 05:12 UTC. Time now 2014-Oct-02 06:35 UTC.
Position N 67°50' E 014°26'.

Length 80 m; draft 5.2 m.

Type: Cargo ship. MMSI: 304882000.

Date/timePositionNaut miles runAvg speedWind from/ knotsBaromVisibWave heightAir tempDewpointWater temp
2014-Oct-01 05:12N 67°50' E 014°26'1015.1
2014-Oct-01 04:34N 67°40' E 014°17'1515.4
2014-Oct-01 03:33N 67°26' E 014°26'1514.8
2014-Oct-01 02:34N 67°13' E 014°08'1714.9
2014-Oct-01 01:25N 66°60' E 013°38'3114.4
2014-Sep-30 23:18N 66°33' E 013°02'17913.9
2014-Sep-30 10:26N 63°54' E 009°46'10 4.7
2014-Sep-30 08:12N 63°45' E 009°33'2 2.7
2014-Sep-30 07:26N 63°44' E 009°36'1 1.1
2014-Sep-30 06:33N 63°44' E 009°33'  
2014-Sep-27 21:08N 59°30' E 005°13'813.0
2014-Sep-27 20:34N 59°23' E 005°18'1514.9
2014-Sep-27 19:34N 59°08' E 005°24'1413.7
2014-Sep-27 18:34N 59°02' E 005°48'1010.4
2014-Sep-27 17:33N 58°51' E 005°45'0 0.0
2014-Sep-27 16:33N 58°51' E 005°45'7 7.3
2014-Sep-27 15:33N 58°58' E 005°48'8 7.6
2014-Sep-27 14:33N 58°59' E 005°33'1312.5
2014-Sep-27 13:33N 58°47' E 005°25'1211.3
2014-Sep-27 12:28N 58°36' E 005°35'1010.6
2014-Sep-27 11:33N 58°28' E 005°46'7 7.1
2014-Sep-27 10:33N 58°26' E 005°59'0 0.0
2014-Sep-27 09:33N 58°26' E 005°59'0 0.0
2014-Sep-27 08:34N 58°26' E 005°59'7 7.2
2014-Sep-27 07:33N 58°20' E 005°52'27713.9
2014-Sep-26 11:34N 54°45' E 000°34'1615.6
2014-Sep-26 10:33N 54°30' E 000°30'1915.5
2014-Sep-26 09:20N 54°11' E 000°26'1915.5
2014-Sep-26 08:07N 53°52' E 000°22'815.0
2014-Sep-26 07:33N 53°44' E 000°20'1212.2
2014-Sep-26 06:33N 53°33' E 000°13'10 9.9
2014-Sep-26 05:33N 53°35' W 000°03'1 0.9
2014-Sep-26 04:31N 53°35' W 000°04'0 0.0
2014-Sep-26 03:31N 53°35' W 000°04'0 0.0
2014-Sep-26 02:31N 53°35' W 000°04'0 0.0
2014-Sep-26 01:31N 53°35' W 000°04'0 0.0
2014-Sep-26 00:31N 53°35' W 000°04'0 0.0
2014-Sep-25 23:31N 53°35' W 000°04'0 0.0
2014-Sep-25 22:31N 53°35' W 000°04'0 0.0
2014-Sep-25 21:31N 53°35' W 000°04'0 0.0
2014-Sep-25 20:31N 53°35' W 000°04'0 0.0
2014-Sep-25 19:28N 53°35' W 000°04'0 0.0
2014-Sep-25 18:25N 53°35' W 000°04'0 0.0
2014-Sep-25 17:28N 53°35' W 000°04'0 0.0
2014-Sep-25 16:28N 53°35' W 000°04'0 0.0
2014-Sep-25 15:31N 53°35' W 000°04'0 0.0
2014-Sep-25 14:31N 53°35' W 000°04'0 0.0
2014-Sep-25 13:22N 53°35' W 000°04'0 0.0
2014-Sep-25 12:28N 53°35' W 000°04'0 0.0
2014-Sep-25 11:31N 53°35' W 000°04'0 0.0
2014-Sep-25 10:33N 53°35' W 000°04'0 0.0
2014-Sep-25 09:33N 53°35' W 000°04'0 0.0
2014-Sep-25 08:34N 53°35' W 000°04'0 0.0
2014-Sep-25 07:33N 53°35' W 000°04'0 0.0
2014-Sep-25 06:33N 53°35' W 000°04'0 0.0
2014-Sep-25 05:30N 53°35' W 000°04'0 0.0
2014-Sep-25 04:33N 53°35' W 000°04'0 0.0
2014-Sep-25 03:33N 53°35' W 000°04'0 0.0
2014-Sep-25 02:33N 53°35' W 000°04'0 0.0
2014-Sep-25 01:33N 53°35' W 000°04'0 0.0
2014-Sep-25 00:33N 53°35' W 000°04'0 0.0
2014-Sep-24 23:33N 53°35' W 000°04'0 0.0
2014-Sep-24 22:33N 53°35' W 000°04'0 0.0
2014-Sep-24 21:33N 53°35' W 000°04'0 0.0
2014-Sep-24 20:33N 53°35' W 000°04'0 0.0
2014-Sep-24 19:33N 53°35' W 000°04'0 0.0
2014-Sep-24 18:33N 53°35' W 000°04'0 0.0
2014-Sep-24 17:33N 53°35' W 000°04'1 1.5
2014-Sep-24 16:33N 53°35' W 000°02'8 8.3
2014-Sep-24 15:33N 53°33' E 000°11'6 6.3
2014-Sep-24 14:33N 53°31' E 000°21'4 3.5
2014-Sep-24 13:31N 53°28' E 000°26'3 2.8
2014-Sep-24 12:31N 53°28' E 000°31'6212.5
2014-Sep-24 07:32N 53°01' E 002°04'8113.5
2014-Sep-24 01:33N 52°31' E 004°08'1413.7
2014-Sep-24 00:33N 52°28' E 004°30'5 5.3
2014-Sep-23 23:34N 52°28' E 004°39'1 0.7
2014-Sep-23 22:33N 52°28' E 004°40'0 0.0
2014-Sep-23 21:33N 52°28' E 004°40'0 0.0
2014-Sep-23 20:34N 52°28' E 004°40'0 0.0
2014-Sep-23 19:33N 52°28' E 004°40'0 0.0
2014-Sep-23 18:33N 52°28' E 004°40'0 0.0
2014-Sep-23 17:34N 52°28' E 004°40'0 0.0
2014-Sep-23 16:33N 52°28' E 004°40'0 0.0
2014-Sep-23 15:34N 52°28' E 004°40'0 0.0
2014-Sep-23 14:34N 52°28' E 004°40'0 0.0
2014-Sep-23 13:34N 52°28' E 004°40'0 0.0
2014-Sep-23 12:33N 52°28' E 004°40'0 0.0
2014-Sep-23 11:33N 52°28' E 004°40'0 0.0
2014-Sep-23 10:33N 52°28' E 004°40'0 0.0
2014-Sep-23 09:33N 52°28' E 004°40'0 0.0
2014-Sep-23 08:33N 52°28' E 004°40'0 0.0
2014-Sep-23 07:33N 52°28' E 004°40'0 0.0
2014-Sep-23 06:34N 52°28' E 004°40'0 0.0
2014-Sep-23 05:33N 52°28' E 004°40'0 0.0
2014-Sep-23 04:34N 52°28' E 004°40'0 0.0
2014-Sep-23 03:33N 52°28' E 004°40'0 0.0
2014-Sep-23 02:33N 52°28' E 004°40'0 0.0
2014-Sep-23 01:33N 52°28' E 004°40'0 0.0
2014-Sep-23 00:33N 52°28' E 004°40'0 0.0
2014-Sep-22 23:33N 52°28' E 004°40'0 0.0
2014-Sep-22 22:33N 52°28' E 004°40'0 0.0
2014-Sep-22 21:34N 52°28' E 004°40'0 0.1
2014-Sep-22 20:33N 52°28' E 004°40'0 0.0
2014-Sep-22 19:34N 52°28' E 004°40'0 0.0
2014-Sep-22 18:33N 52°28' E 004°40'0 0.0
2014-Sep-22 17:33N 52°28' E 004°40'0 0.0
2014-Sep-22 16:34N 52°28' E 004°40'0 0.0
2014-Sep-22 15:34N 52°28' E 004°40'0 0.0
2014-Sep-22 14:33N 52°28' E 004°40'0 0.0
2014-Sep-22 13:34N 52°28' E 004°40'0 0.0
2014-Sep-22 12:34N 52°28' E 004°40'0 0.0
2014-Sep-22 11:33N 52°28' E 004°40'0 0.0
2014-Sep-22 10:33N 52°28' E 004°40'0 0.0
2014-Sep-22 09:33N 52°28' E 004°40'0 0.0
2014-Sep-22 08:33N 52°28' E 004°40'0 0.0
2014-Sep-22 07:34N 52°28' E 004°40'0 0.0
2014-Sep-22 06:34N 52°28' E 004°40'0 0.0
2014-Sep-22 05:33N 52°28' E 004°40'0 0.0
2014-Sep-22 04:34N 52°28' E 004°40'0 0.0
2014-Sep-22 03:34N 52°28' E 004°40'0 0.0
2014-Sep-22 02:33N 52°28' E 004°40'0 0.0
2014-Sep-22 01:33N 52°28' E 004°40'0 0.0
2014-Sep-22 00:33N 52°28' E 004°40'0 0.1
2014-Sep-21 23:34N 52°28' E 004°40'4 4.0
2014-Sep-21 22:34N 52°28' E 004°33'1212.3
2014-Sep-21 21:34N 52°37' E 004°20'1515.4
2014-Sep-21 20:33N 52°52' E 004°26'1813.8
2014-Sep-21 19:14N 53°10' E 004°28'1013.8
2014-Sep-21 18:33N 53°19' E 004°33'1714.2
2014-Sep-21 17:23N 53°35' E 004°39'1314.1
2014-Sep-21 16:27N 53°48' E 004°45'1314.1
2014-Sep-21 15:31N 54°01' E 004°49'1414.2
2014-Sep-21 14:33N 54°14' E 004°57'1514.4
2014-Sep-21 13:33N 54°28' E 005°01'  
Track history (hours):
 
Tides and Currents Weather Stations Pressure Air Temp Water Temp Dewpoint Dewpoint Depression Visibility Wind Speed Wind Dir Waves Ship Positions

Svartfoss

Last reported at 2014-Oct-01 05:12 UTC. Time now 2014-Oct-02 06:35 UTC.
Position N 67°50' E 014°26'.

Length 80 m; draft 5.2 m.

Type: Cargo ship. MMSI: 304882000.

Date/timePositionNaut miles runAvg speedWind from/ knotsBaromVisibWave heightAir tempDewpointWater temp
2014-Oct-01 05:12N 67°50' E 014°26'1015.1
2014-Oct-01 04:34N 67°40' E 014°17'1515.4
2014-Oct-01 03:33N 67°26' E 014°26'1514.8
2014-Oct-01 02:34N 67°13' E 014°08'1714.9
2014-Oct-01 01:25N 66°60' E 013°38'3114.4
2014-Sep-30 23:18N 66°33' E 013°02'17913.9
2014-Sep-30 10:26N 63°54' E 009°46'10 4.7
2014-Sep-30 08:12N 63°45' E 009°33'2 2.7
2014-Sep-30 07:26N 63°44' E 009°36'1 1.1
2014-Sep-30 06:33N 63°44' E 009°33'  
2014-Sep-27 21:08N 59°30' E 005°13'813.0
2014-Sep-27 20:34N 59°23' E 005°18'1514.9
2014-Sep-27 19:34N 59°08' E 005°24'1413.7
2014-Sep-27 18:34N 59°02' E 005°48'1010.4
2014-Sep-27 17:33N 58°51' E 005°45'0 0.0
2014-Sep-27 16:33N 58°51' E 005°45'7 7.3
2014-Sep-27 15:33N 58°58' E 005°48'8 7.6
2014-Sep-27 14:33N 58°59' E 005°33'1312.5
2014-Sep-27 13:33N 58°47' E 005°25'1211.3
2014-Sep-27 12:28N 58°36' E 005°35'1010.6
2014-Sep-27 11:33N 58°28' E 005°46'7 7.1
2014-Sep-27 10:33N 58°26' E 005°59'0 0.0
2014-Sep-27 09:33N 58°26' E 005°59'0 0.0
2014-Sep-27 08:34N 58°26' E 005°59'7 7.2
2014-Sep-27 07:33N 58°20' E 005°52'27713.9
2014-Sep-26 11:34N 54°45' E 000°34'1615.6
2014-Sep-26 10:33N 54°30' E 000°30'1915.5
2014-Sep-26 09:20N 54°11' E 000°26'1915.5
2014-Sep-26 08:07N 53°52' E 000°22'815.0
2014-Sep-26 07:33N 53°44' E 000°20'1212.2
2014-Sep-26 06:33N 53°33' E 000°13'10 9.9
2014-Sep-26 05:33N 53°35' W 000°03'1 0.9
2014-Sep-26 04:31N 53°35' W 000°04'0 0.0
2014-Sep-26 03:31N 53°35' W 000°04'0 0.0
2014-Sep-26 02:31N 53°35' W 000°04'0 0.0
2014-Sep-26 01:31N 53°35' W 000°04'0 0.0
2014-Sep-26 00:31N 53°35' W 000°04'0 0.0
2014-Sep-25 23:31N 53°35' W 000°04'0 0.0
2014-Sep-25 22:31N 53°35' W 000°04'0 0.0
2014-Sep-25 21:31N 53°35' W 000°04'0 0.0
2014-Sep-25 20:31N 53°35' W 000°04'0 0.0
2014-Sep-25 19:28N 53°35' W 000°04'0 0.0
2014-Sep-25 18:25N 53°35' W 000°04'0 0.0
2014-Sep-25 17:28N 53°35' W 000°04'0 0.0
2014-Sep-25 16:28N 53°35' W 000°04'0 0.0
2014-Sep-25 15:31N 53°35' W 000°04'0 0.0
2014-Sep-25 14:31N 53°35' W 000°04'0 0.0
2014-Sep-25 13:22N 53°35' W 000°04'0 0.0
2014-Sep-25 12:28N 53°35' W 000°04'0 0.0
2014-Sep-25 11:31N 53°35' W 000°04'0 0.0
2014-Sep-25 10:33N 53°35' W 000°04'0 0.0
2014-Sep-25 09:33N 53°35' W 000°04'0 0.0
2014-Sep-25 08:34N 53°35' W 000°04'0 0.0
2014-Sep-25 07:33N 53°35' W 000°04'0 0.0
2014-Sep-25 06:33N 53°35' W 000°04'0 0.0
2014-Sep-25 05:30N 53°35' W 000°04'0 0.0
2014-Sep-25 04:33N 53°35' W 000°04'0 0.0
2014-Sep-25 03:33N 53°35' W 000°04'0 0.0
2014-Sep-25 02:33N 53°35' W 000°04'0 0.0
2014-Sep-25 01:33N 53°35' W 000°04'0 0.0
2014-Sep-25 00:33N 53°35' W 000°04'0 0.0
2014-Sep-24 23:33N 53°35' W 000°04'0 0.0
2014-Sep-24 22:33N 53°35' W 000°04'0 0.0
2014-Sep-24 21:33N 53°35' W 000°04'0 0.0
2014-Sep-24 20:33N 53°35' W 000°04'0 0.0
2014-Sep-24 19:33N 53°35' W 000°04'0 0.0
2014-Sep-24 18:33N 53°35' W 000°04'0 0.0
2014-Sep-24 17:33N 53°35' W 000°04'1 1.5
2014-Sep-24 16:33N 53°35' W 000°02'8 8.3
2014-Sep-24 15:33N 53°33' E 000°11'6 6.3
2014-Sep-24 14:33N 53°31' E 000°21'4 3.5
2014-Sep-24 13:31N 53°28' E 000°26'3 2.8
2014-Sep-24 12:31N 53°28' E 000°31'6212.5
2014-Sep-24 07:32N 53°01' E 002°04'8113.5
2014-Sep-24 01:33N 52°31' E 004°08'1413.7
2014-Sep-24 00:33N 52°28' E 004°30'5 5.3
2014-Sep-23 23:34N 52°28' E 004°39'1 0.7
2014-Sep-23 22:33N 52°28' E 004°40'0 0.0
2014-Sep-23 21:33N 52°28' E 004°40'0 0.0
2014-Sep-23 20:34N 52°28' E 004°40'0 0.0
2014-Sep-23 19:33N 52°28' E 004°40'0 0.0
2014-Sep-23 18:33N 52°28' E 004°40'0 0.0
2014-Sep-23 17:34N 52°28' E 004°40'0 0.0
2014-Sep-23 16:33N 52°28' E 004°40'0 0.0
2014-Sep-23 15:34N 52°28' E 004°40'0 0.0
2014-Sep-23 14:34N 52°28' E 004°40'0 0.0
2014-Sep-23 13:34N 52°28' E 004°40'0 0.0
2014-Sep-23 12:33N 52°28' E 004°40'0 0.0
2014-Sep-23 11:33N 52°28' E 004°40'0 0.0
2014-Sep-23 10:33N 52°28' E 004°40'0 0.0
2014-Sep-23 09:33N 52°28' E 004°40'0 0.0
2014-Sep-23 08:33N 52°28' E 004°40'0 0.0
2014-Sep-23 07:33N 52°28' E 004°40'0 0.0
2014-Sep-23 06:34N 52°28' E 004°40'0 0.0
2014-Sep-23 05:33N 52°28' E 004°40'0 0.0
2014-Sep-23 04:34N 52°28' E 004°40'0 0.0
2014-Sep-23 03:33N 52°28' E 004°40'0 0.0
2014-Sep-23 02:33N 52°28' E 004°40'0 0.0
2014-Sep-23 01:33N 52°28' E 004°40'0 0.0
2014-Sep-23 00:33N 52°28' E 004°40'0 0.0
2014-Sep-22 23:33N 52°28' E 004°40'0 0.0
2014-Sep-22 22:33N 52°28' E 004°40'0 0.0
2014-Sep-22 21:34N 52°28' E 004°40'0 0.1
2014-Sep-22 20:33N 52°28' E 004°40'0 0.0
2014-Sep-22 19:34N 52°28' E 004°40'0 0.0
2014-Sep-22 18:33N 52°28' E 004°40'0 0.0
2014-Sep-22 17:33N 52°28' E 004°40'0 0.0
2014-Sep-22 16:34N 52°28' E 004°40'0 0.0
2014-Sep-22 15:34N 52°28' E 004°40'0 0.0
2014-Sep-22 14:33N 52°28' E 004°40'0 0.0
2014-Sep-22 13:34N 52°28' E 004°40'0 0.0
2014-Sep-22 12:34N 52°28' E 004°40'0 0.0
2014-Sep-22 11:33N 52°28' E 004°40'0 0.0
2014-Sep-22 10:33N 52°28' E 004°40'0 0.0
2014-Sep-22 09:33N 52°28' E 004°40'0 0.0
2014-Sep-22 08:33N 52°28' E 004°40'0 0.0
2014-Sep-22 07:34N 52°28' E 004°40'0 0.0
2014-Sep-22 06:34N 52°28' E 004°40'0 0.0
2014-Sep-22 05:33N 52°28' E 004°40'0 0.0
2014-Sep-22 04:34N 52°28' E 004°40'0 0.0
2014-Sep-22 03:34N 52°28' E 004°40'0 0.0
2014-Sep-22 02:33N 52°28' E 004°40'0 0.0
2014-Sep-22 01:33N 52°28' E 004°40'0 0.0
2014-Sep-22 00:33N 52°28' E 004°40'0 0.1
2014-Sep-21 23:34N 52°28' E 004°40'4 4.0
2014-Sep-21 22:34N 52°28' E 004°33'1212.3
2014-Sep-21 21:34N 52°37' E 004°20'1515.4
2014-Sep-21 20:33N 52°52' E 004°26'1813.8
2014-Sep-21 19:14N 53°10' E 004°28'1013.8
2014-Sep-21 18:33N 53°19' E 004°33'1714.2
2014-Sep-21 17:23N 53°35' E 004°39'1314.1
2014-Sep-21 16:27N 53°48' E 004°45'1314.1
2014-Sep-21 15:31N 54°01' E 004°49'1414.2
2014-Sep-21 14:33N 54°14' E 004°57'1514.4
2014-Sep-21 13:33N 54°28' E 005°01'  

Dump ship's entire track history